• Join FlightAware (Why Join?)
  • Login
  • US Flag 
12:20AM EDT


 

Airport Tracker/Info


-or-


 

Live Flight TrackerFlight Track Log ✈ N1279D ✈ 05-May-2012 ✈ KLBF - KCVN

Flight Track Log - Related Links

Times and Time Zones

All times are in EDT time to prevent confusion due to time zone crossing. See the N1279D flight status page for this flight to view local times or setup timezone preferences in your user account.

Time Position Orientation Groundspeed Altitude Reporting Facility
EDT Latitude Longitude Course Direction KTS MPH feet Rate Location/Type
03:37PM 41.0206 -100.7200 205° Southwest 251 289 7,800  Level Denver Center
03:38PM 40.9842 -100.7422 196° South 161 185 9,500 1,500 Climbing Denver Center
03:39PM 40.9472 -100.7564 193° South 136 157 10,800 1,200 Climbing Denver Center
03:40PM 40.9103 -100.7678 195° South 146 168 11,900 1,320 Climbing Denver Center
03:41PM 40.8672 -100.7825 196° South 146 168 13,500 1,440 Climbing Denver Center
03:42PM 40.8283 -100.7969 200° South 146 168 14,800 1,260 Climbing Denver Center
03:43PM 40.7936 -100.8136 196° South 151 174 16,100 1,380 Climbing Denver Center
03:44PM 40.7486 -100.8311 195° South 151 174 17,600 1,500 Climbing Denver Center
03:45PM 40.7097 -100.8453 197° South 141 162 19,100 1,200 Climbing Denver Center
03:46PM 40.6750 -100.8594 196° South 146 168 20,100 1,080 Climbing Denver Center
03:47PM 40.6381 -100.8733 198° South 146 168 21,300 1,260 Climbing Denver Center
03:48PM 40.5972 -100.8906 196° South 141 162 22,700 1,200 Climbing Denver Center
03:49PM 40.5603 -100.9044 197° South 141 162 23,700 600 Climbing Denver Center
03:50PM 40.5256 -100.9183 197° South 146 168 24,000 120 Climbing Denver Center
03:51PM 40.4764 -100.9386 193° South 166 191 24,000  Level Denver Center
03:52PM 40.4167 -100.9572 198° South 196 226 24,000  Level Denver Center
03:53PM 40.3617 -100.9808 195° South 209 241 24,000  Level Denver Center
03:54PM 40.3122 -100.9986 196° South 209 241 24,000  Level Denver Center
03:55PM 40.2569 -101.0194 197° South 209 241 24,000  Level Denver Center
03:56PM 40.1956 -101.0433 195° South 214 246 24,000  Level Denver Center
03:57PM 40.1381 -101.0642 197° South 214 246 24,000  Level Denver Center
03:58PM 40.0869 -101.0847 195° South 220 253 24,000  Level Denver Center
03:59PM 40.0253 -101.1058 198° South 220 253 24,000  Level Denver Center
04:00PM 39.9722 -101.1289 196° South 215 247 24,000  Level Denver Center
04:01PM 39.9147 -101.1497 198° South 215 247 24,000  Level Denver Center
04:02PM 39.8675 -101.1697 195° South 210 242 24,000  Level Denver Center
04:03PM 39.8061 -101.1906 196° South 210 242 24,000  Level Denver Center
04:04PM 39.7506 -101.2111 198° South 210 242 24,000  Level Denver Center
04:05PM 39.6953 -101.2344 192° South 210 242 24,000  Level Denver Center
04:06PM 39.6417 -101.2492 199° South 210 242 24,000  Level Denver Center
04:07PM 39.5825 -101.2753 195° South 210 242 24,000  Level Denver Center
04:08PM 39.5250 -101.2958 198° South 210 242 24,000  Level Denver Center
04:09PM 39.4697 -101.3189 195° South 210 242 24,000  Level Denver Center
04:10PM 39.4183 -101.3361 194° South 210 242 24,000  Level Denver Center
04:11PM 39.3567 -101.3567 198° South 210 242 24,000  Level Denver Center
04:12PM 39.3033 -101.3794 198° South 215 247 24,000  Level Denver Center
04:13PM 39.2481 -101.4022 190° South 215 247 24,000  Level Denver Center
04:14PM 39.1944 -101.4144 198° South 215 247 24,000  Level Denver Center
04:15PM 39.1350 -101.4400 198° South 217 250 24,000  Level Denver Center
04:16PM 39.0797 -101.4628 200° South 217 250 24,000  Level Denver Center
04:17PM 39.0206 -101.4911 195° South 222 255 24,000  Level Denver Center
04:18PM 38.9631 -101.5114 196° South 222 255 24,000  Level Denver Center
04:19PM 38.9097 -101.5311 196° South 222 255 24,000  Level Denver Center
04:20PM 38.8458 -101.5542 195° South 222 255 24,000  Level Denver Center
04:21PM 38.7883 -101.5742 196° South 222 255 24,000  Level Denver Center
04:22PM 38.7269 -101.5972 196° South 222 255 24,000  Level Denver Center
04:23PM 38.6733 -101.6169 195° South 222 255 24,000  Level Denver Center
04:24PM 38.6078 -101.6400 195° South 222 255 24,000  Level Denver Center
04:25PM 38.5500 -101.6600 198° South 222 255 24,000  Level Denver Center
04:26PM 38.4969 -101.6822 195° South 222 255 24,000  Level Denver Center
04:27PM 38.4372 -101.7019 196° South 222 255 24,000  Level Denver Center
04:28PM 38.3733 -101.7250 197° South 222 255 24,000  Level Denver Center
04:29PM 38.3139 -101.7475 196° South 222 255 24,000  Level Denver Center
04:30PM 38.2625 -101.7667 197° South 222 255 24,000  Level Denver Center
04:31PM 38.2031 -101.7892 194° South 222 255 24,000  Level Denver Center
04:32PM 38.1392 -101.8092 196° South 222 255 24,000  Level Denver Center
04:34PM 38.0336 -101.8467 197° South 206 237 24,000 -60 Level Kansas City Center
04:35PM 37.9803 -101.8678 195° South 221 254 23,900  Descending Kansas City Center
04:36PM 37.9142 -101.8903 196° South 226 260 24,000  Climbing Kansas City Center
04:37PM 37.8564 -101.9108 196° South 226 260 24,000  Level Kansas City Center
04:38PM 37.7944 -101.9336 195° South 231 266 24,000  Level Kansas City Center
04:39PM 37.7392 -101.9519 196° South 231 266 24,000 -60 Level Kansas City Center
04:40PM 37.6731 -101.9767 197° South 231 266 23,900  Descending Kansas City Center
04:41PM 37.6131 -101.9997 195° South 231 266 24,000  Climbing Kansas City Center
04:42PM 37.5597 -102.0181 196° South 231 266 23,900  Descending Kansas City Center
04:43PM 37.5022 -102.0386 195° South 231 266 24,000  Climbing Kansas City Center
04:45PM 37.4047 -102.0706 196° South 223 257 23,900  Descending Albuquerque Center
04:46PM 37.3475 -102.0906 196° South 223 257 24,000  Climbing Albuquerque Center
04:47PM 37.2808 -102.1139 196° South 223 257 24,000  Level Albuquerque Center
04:48PM 37.2233 -102.1350 196° South 224 258 24,000 -60 Level Albuquerque Center
04:49PM 37.1561 -102.1586 195° South 225 259 23,900 -60 Descending Albuquerque Center
04:50PM 37.0983 -102.1783 196° South 224 258 23,900  Level Albuquerque Center
04:51PM 37.0325 -102.2017 196° South 223 257 24,000  Climbing Albuquerque Center
04:52PM 36.9756 -102.2217 195° South 222 255 23,900 -60 Descending Albuquerque Center
04:53PM 36.9083 -102.2439 196° South 223 257 23,900  Level Albuquerque Center
04:54PM 36.8514 -102.2642 196° South 223 257 23,900  Level Albuquerque Center
04:55PM 36.7839 -102.2886 195° South 225 259 24,000  Climbing Albuquerque Center
04:56PM 36.7258 -102.3075 196° South 225 259 23,900 -60 Descending Albuquerque Center
04:57PM 36.6675 -102.3278 196° South 227 261 23,900  Level Albuquerque Center
04:58PM 36.5981 -102.3519 195° South 225 259 23,900  Level Albuquerque Center
04:59PM 36.5386 -102.3717 196° South 222 255 23,900  Level Albuquerque Center
05:00PM 36.4803 -102.3919 195° South 220 253 23,900  Level Albuquerque Center
05:01PM 36.4197 -102.4125 196° South 223 257 23,900  Level Albuquerque Center
05:02PM 36.3594 -102.4339 195° South 224 258 23,900  Level Albuquerque Center
05:03PM 36.2994 -102.4536 196° South 223 257 23,900  Level Albuquerque Center
05:04PM 36.2386 -102.4747 196° South 225 259 23,900  Level Albuquerque Center
05:05PM 36.1653 -102.5000 195° South 227 261 23,900  Level Albuquerque Center
05:06PM 36.1044 -102.5203 196° South 226 260 23,900  Level Albuquerque Center
05:07PM 36.0442 -102.5411 195° South 226 260 23,900  Level Albuquerque Center
05:08PM 35.9822 -102.5617 196° South 228 262 23,900  Level Albuquerque Center
05:09PM 35.9217 -102.5825 196° South 227 261 23,900  Level Albuquerque Center
05:10PM 35.8614 -102.6033 196° South 226 260 23,900  Level Albuquerque Center
05:11PM 35.7997 -102.6244 195° South 228 262 23,900  Level Albuquerque Center
05:12PM 35.7269 -102.6481 195° South 226 260 23,900  Level Albuquerque Center
05:13PM 35.6669 -102.6683 195° South 225 259 23,900 -60 Level Albuquerque Center
05:15PM 35.6058 -102.6883 196° South 226 260 23,800 -780 Descending Albuquerque Center
05:16PM 35.5483 -102.7083 196° South 225 259 22,400 -1,500 Descending Albuquerque Center
05:17PM 35.4836 -102.7308 195° South 231 266 20,700 -1,680 Descending Albuquerque Center
05:18PM 35.4006 -102.7578 195° South 249 287 19,000 -840 Descending Albuquerque Center
05:19PM 35.3353 -102.7786 196° South 247 284 19,000  Level Albuquerque Center
05:20PM 35.2806 -102.7978 195° South 214 246 19,000  Level Albuquerque Center
05:21PM 35.2278 -102.8153 195° South 200 230 19,000  Level Albuquerque Center
05:22PM 35.1747 -102.8328 195° South 198 228 19,000  Level Albuquerque Center
05:23PM 35.1194 -102.8511 196° South 194 223 19,000 -300 Level Albuquerque Center
05:24PM 35.0631 -102.8706 195° South 197 227 18,400 -1,140 Descending Albuquerque Center
05:25PM 35.0003 -102.8914 195° South 237 273 16,800 -1,680 Descending Albuquerque Center
05:26PM 34.9314 -102.9133 195° South 248 285 15,100 -1,560 Descending Albuquerque Center
05:27PM 34.8686 -102.9342 195° South 246 283 13,700 -1,440 Descending Albuquerque Center
05:28PM 34.8081 -102.9544 194° South 213 245 12,300 -1,440 Descending Albuquerque Center
05:29PM 34.7511 -102.9714 196° South 202 232 10,800 -1,380 Descending Albuquerque Center
05:30PM 34.7008 -102.9894 194° South 198 228 9,500 -780 Descending Albuquerque Center
05:31PM 34.6447 -103.0069 192° South 200 230 9,200 -300 Descending Albuquerque Center
05:38PM 34.4167 -103.0667 309° West  Level FlightAware Approximate
05:39PM 34.4543 -103.1227 309° West  Level Estimated